Leesburg, FL

10:25 PM EDT on May 27, 2015 (GMT -0400)
Ocala Regional-Taylor | | Change Station
CLOSE
Current Station
Airport
Location: Ocala,
Elevation: 89 ft
Nearby Weather Stations

Elev 89 ft 29.17 °N, 82.22 °W | Updated 10 minutes ago

Clear
Clear
77 °F
Feels Like 77 °F
N
6
Wind Variable Wind from ENE

Today
High -- | Low -- °F
--% Chance of Precip.
Yesterday
High -- | Low -- °F
Precip. -- in
6:31 AM 8:18 PM
Waxing Gibbous, 72% visible
Pressure 30.17 in
Visibility 10.0 miles
Clouds Clear
Dew Point 63 °F
Humidity 61%
Rainfall 0.00 in
Snow Depth Not available.
UV 0 out of 12
Pollen 5.30 out of 12
Air Quality Not available.
Flu Activity Sporadic
METAR KOCF 280215Z AUTO 07005KT 10SM CLR 25/17 A3017 RMK AO1

More Conditions Fewer Conditions

Pressure 30.17 in
Visibility 10.0 miles
Clouds Clear
Dew Point 63 °F
Humidity 61%
Rainfall 0.00 in
Snow Depth Not available.
UV 0 out of 12
Pollen 5.30 out of 12
Air Quality Not available.
Flu Activity Sporadic
METAR KOCF 280215Z AUTO 07005KT 10SM CLR 25/17 A3017 RMK AO1

More Conditions Fewer Conditions

Nowcast | as of 9:40 PM EDT on May 27, 2015

Isolated showers will diminish as they move toward the west across portions of Volusia...Seminole...Orange and Osceola counties. Additional isolated showers over the Atlantic will approach portions of the coast overnight and produce very spotty rainfall while most areas will remain dry. Additional details...including graphics are available online at: http://www.Srh.NOAA.Gov/mlb/blog.Php

×

10-Day Weather Forecast

Almanac

Astronomy

May. 27, 2015 Rise Set
Actual Time
Civil Twilight
Nautical Twilight
Astronomical Twilight
Moon
Length of Visible Light
Length of Day
Tomorrow will be .
, % of the Moon is Illuminated

Today's Extremes

State Highs State Lows

Community

WunderPhotos

Upload Photos

1,824,860 photos uploaded!

WunderBlogs® & News

Nearby

Air Quality

  Air Quality AQ Index Pollutant
Not available.

Snow Depth

Station Depth Elevation

Earthquake Activity

City Distance Mag. Time & Date
Minimum magnitude displayed is 2.5.

Coastal Water Temperatures

Place Temperature

Stations

Nearby Weather Stations

Station Location Temp. Windchill Dew Point Humidity Wind Precip. Elev Updated Type